Time;durP1;ratioP1;P1;durP2;ratioP2;P2;SDS_P1;SDS_P2;PMS_P1;PMS_P2;Temp;Humidity;BMP_temperature;BMP_pressure;BME280_temperature;BME280_humidity;BME280_pressure;Samples;Min_cycle;Max_cycle;Signal;HPM_P1;HPM_P2
2022/01/05 00:01:46;;;;;;;6.43;1.50;;;3.40;83.20;;;;;;6097906;23;92328;-66
2022/01/05 00:04:13;;;;;;;6.57;1.17;;;3.40;83.30;;;;;;6096206;23;92804;-72
2022/01/05 00:06:40;;;;;;;5.82;1.70;;;3.40;83.60;;;;;;6096389;23;94761;-73
2022/01/05 00:09:07;;;;;;;5.47;1.20;;;3.40;84.00;;;;;;6095313;23;101028;-73
2022/01/05 00:11:37;;;;;;;7.57;1.50;;;3.30;84.40;;;;;;6096434;23;93259;-72
2022/01/05 00:14:04;;;;;;;6.72;1.52;;;3.30;84.10;;;;;;6097894;23;92281;-66
2022/01/05 00:16:31;;;;;;;11.45;1.85;;;3.30;84.40;;;;;;6097599;23;92936;-67
2022/01/05 00:18:58;;;;;;;3.88;1.23;;;3.30;84.20;;;;;;6097480;23;93872;-66
2022/01/05 00:21:25;;;;;;;10.10;2.08;;;3.30;84.50;;;;;;6095584;23;94013;-66
2022/01/05 00:23:52;;;;;;;8.43;2.05;;;3.30;84.30;;;;;;6096816;23;91710;-66
2022/01/05 00:26:19;;;;;;;8.93;1.40;;;3.30;84.20;;;;;;6097286;23;96995;-66
2022/01/05 00:28:46;;;;;;;4.88;1.40;;;3.30;84.70;;;;;;6097783;23;93019;-67
2022/01/05 00:31:13;;;;;;;7.80;1.48;;;3.30;84.70;;;;;;6095773;23;94935;-66
2022/01/05 00:33:40;;;;;;;8.35;1.85;;;3.30;85.20;;;;;;6097747;23;92381;-66
2022/01/05 00:36:07;;;;;;;9.63;1.95;;;3.30;85.20;;;;;;6071849;23;92416;-66
2022/01/05 00:38:34;;;;;;;4.50;1.67;;;3.30;85.30;;;;;;6095369;23;94478;-66
2022/01/05 00:41:01;;;;;;;6.85;1.95;;;3.30;85.50;;;;;;6095577;23;93952;-66
2022/01/05 00:43:29;;;;;;;5.90;1.55;;;3.30;85.90;;;;;;6095718;23;92505;-66
2022/01/05 00:45:56;;;;;;;6.85;1.42;;;3.30;85.30;;;;;;6097619;23;92653;-66
2022/01/05 00:48:24;;;;;;;9.45;1.88;;;3.30;85.80;;;;;;6097490;23;92363;-66
2022/01/05 00:50:51;;;;;;;9.73;2.28;;;3.30;85.90;;;;;;6097482;23;92729;-66
2022/01/05 00:53:17;;;;;;;8.98;1.42;;;3.30;86.00;;;;;;6095421;23;92443;-65
2022/01/05 00:55:44;;;;;;;6.93;1.60;;;3.30;85.30;;;;;;6095420;23;94799;-65
2022/01/05 00:58:11;;;;;;;7.05;1.67;;;3.30;85.80;;;;;;6096856;23;93044;-65
2022/01/05 01:00:38;;;;;;;6.45;2.08;;;3.30;85.50;;;;;;6094117;23;108199;-66
2022/01/05 01:03:05;;;;;;;14.77;2.13;;;3.30;85.60;;;;;;6095623;23;92279;-65
2022/01/05 01:05:32;;;;;;;10.15;1.98;;;3.30;85.00;;;;;;6094874;23;92838;-65
2022/01/05 01:08:00;;;;;;;8.48;1.73;;;3.40;85.00;;;;;;6093543;23;94865;-65
2022/01/05 01:10:26;;;;;;;8.07;1.60;;;3.40;85.10;;;;;;6094828;23;92777;-65
2022/01/05 01:12:53;;;;;;;8.85;1.52;;;3.40;84.90;;;;;;6095788;23;91597;-65
2022/01/05 01:15:20;;;;;;;7.57;1.33;;;3.40;85.00;;;;;;6095206;23;92418;-66
2022/01/05 01:17:47;;;;;;;7.50;1.35;;;3.40;84.50;;;;;;6095179;23;92993;-66
2022/01/05 01:20:16;;;;;;;7.15;1.38;;;3.40;84.00;;;;;;6093806;23;94803;-66
2022/01/05 01:22:43;;;;;;;5.03;1.52;;;3.40;84.10;;;;;;6093950;23;92394;-65
2022/01/05 01:25:10;;;;;;;9.80;2.47;;;3.40;84.00;;;;;;6095327;23;92385;-66
2022/01/05 01:27:40;;;;;;;5.28;1.63;;;3.40;84.00;;;;;;6094938;23;92865;-65
2022/01/05 01:30:08;;;;;;;9.25;2.03;;;3.50;84.30;;;;;;6095643;23;92363;-66
2022/01/05 01:32:35;;;;;;;6.80;1.48;;;3.50;83.90;;;;;;6094688;23;99027;-65
2022/01/05 01:35:06;;;;;;;5.25;1.80;;;3.40;84.40;;;;;;6093190;23;100358;-65
2022/01/05 01:37:33;;;;;;;5.55;1.40;;;3.50;83.90;;;;;;6095335;23;92305;-65
2022/01/05 01:40:00;;;;;;;6.70;1.55;;;3.40;83.90;;;;;;6095197;23;92328;-65
2022/01/05 01:42:26;;;;;;;8.75;1.80;;;3.40;83.60;;;;;;6095167;23;92418;-65
2022/01/05 01:44:53;;;;;;;5.63;1.30;;;3.40;83.70;;;;;;6093936;23;94821;-66
2022/01/05 01:47:20;;;;;;;5.63;1.48;;;3.40;84.10;;;;;;6095290;23;93056;-65
2022/01/05 01:49:47;;;;;;;5.68;1.42;;;3.30;84.00;;;;;;6094800;23;93984;-67
2022/01/05 01:52:14;;;;;;;11.65;2.38;;;3.30;83.90;;;;;;6095518;23;92356;-65
2022/01/05 01:54:41;;;;;;;6.32;1.38;;;3.30;84.00;;;;;;6094701;23;92709;-65
2022/01/05 01:57:09;;;;;;;7.43;1.52;;;3.30;84.40;;;;;;6095588;23;93030;-65
2022/01/05 01:59:36;;;;;;;5.53;1.58;;;3.30;84.50;;;;;;6093033;23;94042;-65
2022/01/05 02:02:04;;;;;;;6.05;1.63;;;3.30;85.10;;;;;;6095558;23;91606;-65
2022/01/05 02:04:32;;;;;;;9.70;2.13;;;3.30;85.00;;;;;;6095039;23;92442;-65
2022/01/05 02:06:58;;;;;;;7.22;1.40;;;3.30;84.40;;;;;;6092448;23;111726;-65
2022/01/05 02:09:27;;;;;;;5.65;1.50;;;3.30;84.70;;;;;;6091743;23;94895;-65
2022/01/05 02:11:54;;;;;;;6.95;1.10;;;3.30;84.80;;;;;;6095487;23;92885;-65
2022/01/05 02:14:21;;;;;;;8.05;1.58;;;3.30;84.30;;;;;;6095260;23;92396;-67
2022/01/05 02:16:48;;;;;;;8.38;1.50;;;3.30;84.60;;;;;;6093024;23;94591;-65
2022/01/05 02:19:15;;;;;;;7.45;2.22;;;3.30;84.20;;;;;;6095154;23;92929;-65
2022/01/05 02:21:42;;;;;;;8.98;1.63;;;3.30;84.30;;;;;;6095014;23;92377;-65
2022/01/05 02:24:10;;;;;;;7.20;1.58;;;3.30;83.70;;;;;;6095075;23;92406;-66
2022/01/05 02:26:38;;;;;;;5.15;1.60;;;3.30;84.10;;;;;;6095008;23;93350;-65
2022/01/05 02:29:05;;;;;;;6.38;1.55;;;3.30;83.40;;;;;;6095135;23;92386;-65
2022/01/05 02:31:33;;;;;;;8.15;1.67;;;3.30;83.70;;;;;;6095055;23;92341;-65
2022/01/05 02:34:01;;;;;;;13.32;2.47;;;3.30;83.10;;;;;;6093964;23;94797;-65
2022/01/05 02:36:28;;;;;;;7.57;1.58;;;3.30;83.80;;;;;;6094956;23;92907;-65
2022/01/05 02:38:55;;;;;;;6.05;1.70;;;3.30;83.10;;;;;;6095406;23;92755;-65
2022/01/05 02:41:23;;;;;;;8.35;2.05;;;3.30;83.00;;;;;;6095135;23;102344;-66
2022/01/05 02:43:50;;;;;;;6.72;1.42;;;3.30;83.30;;;;;;6095333;23;92394;-65
2022/01/05 02:46:19;;;;;;;5.18;1.50;;;3.30;83.00;;;;;;6095070;23;93053;-65
2022/01/05 02:48:50;;;;;;;8.52;1.73;;;3.40;83.30;;;;;;6094684;23;95766;-65
2022/01/05 02:51:17;;;;;;;8.63;1.60;;;3.40;83.20;;;;;;6096158;23;92063;-66
2022/01/05 02:53:45;;;;;;;6.90;1.25;;;3.40;83.30;;;;;;6094786;23;92399;-65
2022/01/05 02:56:12;;;;;;;6.28;1.38;;;3.40;83.20;;;;;;6094678;23;93106;-65
2022/01/05 02:58:39;;;;;;;7.00;1.70;;;3.40;83.70;;;;;;6093205;23;94690;-65
2022/01/05 03:01:07;;;;;;;4.32;1.58;;;3.40;83.20;;;;;;6095164;23;92339;-65
2022/01/05 03:03:34;;;;;;;9.43;1.77;;;3.40;83.50;;;;;;6094977;23;92384;-66
2022/01/05 03:06:01;;;;;;;7.45;1.40;;;3.40;83.50;;;;;;6094760;23;94138;-65
2022/01/05 03:08:29;;;;;;;12.68;2.10;;;3.50;83.20;;;;;;6094688;23;96095;-65
2022/01/05 03:10:56;;;;;;;7.20;1.73;;;3.50;82.80;;;;;;6094990;23;92732;-65
2022/01/05 03:13:23;;;;;;;13.57;1.98;;;3.50;83.50;;;;;;6068636;23;92422;-65
2022/01/05 03:15:52;;;;;;;9.35;2.35;;;3.50;83.00;;;;;;6095024;23;91734;-65
2022/01/05 03:18:19;;;;;;;8.35;2.60;;;3.50;83.10;;;;;;6095039;23;92376;-66
2022/01/05 03:20:49;;;;;;;8.30;1.75;;;3.60;82.80;;;;;;6069280;23;92394;-65
2022/01/05 03:23:16;;;;;;;6.97;1.52;;;3.50;82.60;;;;;;6093248;23;94888;-65
2022/01/05 03:25:43;;;;;;;10.15;1.58;;;3.60;82.50;;;;;;6094335;23;92910;-71
2022/01/05 03:28:10;;;;;;;7.07;1.55;;;3.50;82.50;;;;;;6094702;23;92740;-71
2022/01/05 03:30:38;;;;;;;7.88;1.80;;;3.50;82.80;;;;;;6093126;23;92506;-71
2022/01/05 03:33:19;;;;;;;7.70;1.92;;;3.60;82.70;;;;;;6094787;23;92393;-72
2022/01/05 03:35:47;;;;;;;5.35;1.70;;;3.60;82.70;;;;;;6094543;23;92967;-72
2022/01/05 03:38:17;;;;;;;10.82;1.92;;;3.60;82.90;;;;;;6093290;23;92799;-72
2022/01/05 03:40:46;;;;;;;12.82;2.20;;;3.60;82.70;;;;;;6093586;23;91663;-71
2022/01/05 03:43:13;;;;;;;12.70;2.08;;;3.60;82.60;;;;;;6094901;23;92407;-72
2022/01/05 03:45:42;;;;;;;10.70;1.70;;;3.60;82.40;;;;;;6094370;23;92986;-71
2022/01/05 03:48:12;;;;;;;10.57;1.90;;;3.60;82.20;;;;;;6093357;23;94795;-73
2022/01/05 03:50:39;;;;;;;9.23;1.70;;;3.70;82.10;;;;;;6094848;23;92408;-72
2022/01/05 03:53:07;;;;;;;10.73;2.28;;;3.70;82.30;;;;;;6094529;23;92427;-71
2022/01/05 03:55:36;;;;;;;8.68;2.13;;;3.70;82.60;;;;;;6092859;23;114980;-71
2022/01/05 03:58:03;;;;;;;8.50;2.03;;;3.80;82.00;;;;;;6092120;23;94044;-72
2022/01/05 04:00:32;;;;;;;9.45;2.00;;;3.80;81.80;;;;;;6092626;23;92440;-71
2022/01/05 04:03:00;;;;;;;11.18;2.35;;;3.90;82.00;;;;;;6091710;23;92496;-73
2022/01/05 04:05:28;;;;;;;7.03;1.88;;;4.00;81.30;;;;;;6094330;23;92383;-73
2022/01/05 04:07:56;;;;;;;10.32;2.13;;;4.00;81.70;;;;;;6093680;23;92520;-72
2022/01/05 04:10:24;;;;;;;14.10;2.25;;;4.00;81.70;;;;;;6094384;23;92427;-72
2022/01/05 04:12:51;;;;;;;11.07;2.40;;;4.10;81.70;;;;;;6092761;23;94838;-72
2022/01/05 04:15:19;;;;;;;16.98;2.65;;;4.10;81.40;;;;;;6094168;23;93027;-73
2022/01/05 04:17:46;;;;;;;11.63;1.80;;;4.10;81.80;;;;;;6093661;23;102542;-72
2022/01/05 04:20:14;;;;;;;8.38;1.73;;;4.10;81.00;;;;;;6094335;23;92337;-72
2022/01/05 04:22:41;;;;;;;14.43;2.20;;;4.10;81.70;;;;;;6094232;23;92445;-72
2022/01/05 04:25:09;;;;;;;10.27;2.40;;;4.10;81.30;;;;;;6094057;23;93062;-72
2022/01/05 04:27:36;;;;;;;8.95;1.90;;;4.10;81.20;;;;;;6093816;23;92843;-72
2022/01/05 04:30:05;;;;;;;12.40;2.25;;;4.10;81.20;;;;;;6094691;23;91638;-73
2022/01/05 04:32:34;;;;;;;13.55;2.50;;;4.20;81.50;;;;;;6094310;23;92359;-72
2022/01/05 04:35:21;;;;;;;8.55;1.90;;;4.20;81.00;;;;;;6069114;23;94085;-72
2022/01/05 04:37:52;;;;;;;9.18;2.63;;;4.30;80.70;;;;;;6094319;23;94836;-73
2022/01/05 04:40:19;;;;;;;9.90;2.30;;;4.30;80.70;;;;;;6096130;23;93025;-72
2022/01/05 04:42:47;;;;;;;11.85;2.00;;;4.40;80.90;;;;;;6093389;23;92771;-72
2022/01/05 04:45:13;;;;;;;12.00;2.03;;;4.50;80.50;;;;;;6094633;23;104468;-72
2022/01/05 04:47:40;;;;;;;7.72;1.58;;;4.50;79.80;;;;;;6095366;23;92786;-72
2022/01/05 04:50:08;;;;;;;10.48;2.00;;;4.60;79.80;;;;;;6095183;23;92341;-72
2022/01/05 04:52:35;;;;;;;12.85;2.08;;;4.70;80.00;;;;;;6095502;23;92416;-73
2022/01/05 04:55:02;;;;;;;10.05;2.70;;;4.70;79.50;;;;;;6095202;23;91703;-72
2022/01/05 04:57:29;;;;;;;11.60;1.98;;;4.70;79.50;;;;;;6095468;23;93834;-72
2022/01/05 04:59:56;;;;;;;9.82;2.53;;;4.70;80.00;;;;;;6095309;23;92335;-72
2022/01/05 05:02:23;;;;;;;11.10;2.55;;;4.80;79.80;;;;;;6067922;23;94921;-72
2022/01/05 05:04:51;;;;;;;9.57;2.08;;;4.70;80.10;;;;;;6094973;23;92912;-73
2022/01/05 05:07:18;;;;;;;14.48;2.85;;;4.70;81.20;;;;;;6095231;23;92603;-72
2022/01/05 05:09:45;;;;;;;11.05;1.98;;;4.70;80.00;;;;;;6093907;23;92344;-72
2022/01/05 05:12:12;;;;;;;10.70;2.22;;;4.60;80.10;;;;;;6094340;23;105950;-72
2022/01/05 05:14:39;;;;;;;5.93;1.67;;;4.60;81.60;;;;;;6068859;23;93067;-72
2022/01/05 05:17:06;;;;;;;7.43;1.92;;;4.50;81.40;;;;;;6094987;23;92723;-72
2022/01/05 05:19:33;;;;;;;9.90;2.10;;;4.60;81.30;;;;;;6095895;23;91711;-72
2022/01/05 05:22:00;;;;;;;8.40;1.50;;;4.70;80.50;;;;;;6095250;23;92404;-72
2022/01/05 05:24:27;;;;;;;6.90;2.17;;;4.70;80.30;;;;;;6095404;23;93002;-71
2022/01/05 05:26:54;;;;;;;8.20;1.83;;;4.80;81.00;;;;;;6067395;23;94930;-72
2022/01/05 05:29:21;;;;;;;10.88;1.67;;;4.80;80.80;;;;;;6095432;23;92461;-71
2022/01/05 05:31:48;;;;;;;8.40;1.70;;;4.90;80.60;;;;;;6095473;23;92407;-72
2022/01/05 05:34:15;;;;;;;12.80;1.67;;;4.90;80.30;;;;;;6092697;23;94249;-72
2022/01/05 05:36:42;;;;;;;9.55;2.20;;;5.00;81.00;;;;;;6093275;23;93854;-71
2022/01/05 05:39:08;;;;;;;10.40;2.40;;;5.00;80.40;;;;;;6094386;23;101048;-71
2022/01/05 05:41:35;;;;;;;10.10;1.73;;;4.90;80.70;;;;;;6068586;23;92386;-71
2022/01/05 05:44:03;;;;;;;8.02;1.70;;;4.90;80.40;;;;;;6095137;23;92316;-71
2022/01/05 05:46:29;;;;;;;13.30;2.65;;;4.80;80.40;;;;;;6094552;23;98433;-71
2022/01/05 05:48:56;;;;;;;8.57;1.60;;;4.80;80.40;;;;;;6095125;23;92335;-71
2022/01/05 05:51:23;;;;;;;9.60;1.80;;;4.80;81.40;;;;;;6067918;23;94871;-71
2022/01/05 05:53:50;;;;;;;7.18;1.50;;;4.80;81.20;;;;;;6095227;23;93047;-71
2022/01/05 05:56:17;;;;;;;11.73;1.58;;;4.80;81.10;;;;;;6094805;23;92871;-71
2022/01/05 05:58:45;;;;;;;14.35;2.08;;;4.90;80.90;;;;;;6093985;23;92516;-71
2022/01/05 06:01:12;;;;;;;12.90;2.45;;;4.90;81.40;;;;;;6093249;23;92617;-71
2022/01/05 06:03:39;;;;;;;8.48;1.85;;;5.00;81.20;;;;;;6093498;23;94496;-71
2022/01/05 06:06:06;;;;;;;9.95;1.55;;;5.10;80.90;;;;;;6094656;23;94786;-72
2022/01/05 06:08:33;;;;;;;11.13;2.35;;;5.10;80.80;;;;;;6094012;23;91732;-71
2022/01/05 06:11:00;;;;;;;13.90;2.22;;;5.20;81.10;;;;;;6094706;23;95280;-71
2022/01/05 06:13:27;;;;;;;10.90;2.20;;;5.20;81.10;;;;;;6095127;23;93491;-71
2022/01/05 06:15:54;;;;;;;10.63;2.10;;;5.30;80.80;;;;;;6093356;23;94883;-72
2022/01/05 06:18:21;;;;;;;8.27;2.00;;;5.30;81.40;;;;;;6095044;23;92490;-72
2022/01/05 06:20:48;;;;;;;10.23;2.08;;;5.40;81.40;;;;;;6093971;23;92440;-71
2022/01/05 06:23:15;;;;;;;8.52;1.70;;;5.40;81.40;;;;;;6093281;23;92387;-71
2022/01/05 06:25:42;;;;;;;11.75;2.35;;;5.50;81.50;;;;;;6095051;23;92762;-72
2022/01/05 06:28:11;;;;;;;11.95;2.00;;;5.50;81.50;;;;;;6095022;23;92435;-71
2022/01/05 06:30:39;;;;;;;6.25;1.80;;;5.50;82.40;;;;;;6095453;23;92721;-71
2022/01/05 06:33:06;;;;;;;14.10;2.40;;;5.60;82.00;;;;;;6095209;23;92514;-71
2022/01/05 06:35:34;;;;;;;10.07;2.40;;;5.60;82.40;;;;;;6094227;23;112783;-71
2022/01/05 06:38:01;;;;;;;9.38;2.00;;;5.60;82.90;;;;;;6093635;23;92507;-71
2022/01/05 06:40:28;;;;;;;11.65;2.83;;;5.60;83.00;;;;;;6093625;23;94803;-71
2022/01/05 06:42:55;;;;;;;9.20;1.75;;;5.60;83.20;;;;;;6095026;23;93095;-72
2022/01/05 06:45:22;;;;;;;9.35;1.90;;;5.60;84.70;;;;;;6069165;23;93339;-72
2022/01/05 06:47:49;;;;;;;7.95;1.67;;;5.60;83.70;;;;;;6095081;23;92461;-71
2022/01/05 06:50:16;;;;;;;9.90;2.00;;;5.60;83.60;;;;;;6094998;23;92478;-71
2022/01/05 06:52:43;;;;;;;13.20;2.30;;;5.60;84.70;;;;;;6068613;23;94018;-72
2022/01/05 06:55:10;;;;;;;9.52;1.95;;;5.60;85.00;;;;;;6094250;23;93301;-71
2022/01/05 06:57:40;;;;;;;2.78;1.30;;;5.60;84.80;;;;;;6069091;23;91613;-71
2022/01/05 07:00:12;;;;;;;6.38;1.80;;;5.60;84.50;;;;;;6094583;23;92402;-72
2022/01/05 07:02:39;;;;;;;8.95;1.98;;;5.60;84.10;;;;;;6093432;23;94037;-73
2022/01/05 07:05:07;;;;;;;8.43;2.20;;;5.60;84.90;;;;;;6093096;23;95469;-72
2022/01/05 07:07:35;;;;;;;11.20;2.20;;;5.60;85.00;;;;;;6095273;23;92767;-71
2022/01/05 07:10:06;;;;;;;5.95;1.80;;;5.70;84.90;;;;;;6095331;23;92357;-72
2022/01/05 07:12:34;;;;;;;8.88;1.50;;;5.70;85.50;;;;;;6094979;23;93087;-71
2022/01/05 07:15:02;;;;;;;6.10;1.92;;;5.60;85.20;;;;;;6095112;23;97170;-71
2022/01/05 07:17:29;;;;;;;13.95;2.65;;;5.70;85.70;;;;;;6094943;23;92490;-72
2022/01/05 07:19:56;;;;;;;13.57;2.45;;;5.70;85.90;;;;;;6094969;23;92379;-71
2022/01/05 07:22:23;;;;;;;7.45;2.50;;;5.70;86.10;;;;;;6095059;23;92251;-71
2022/01/05 07:24:50;;;;;;;6.90;1.60;;;5.80;86.30;;;;;;6094996;23;92384;-73
2022/01/05 07:27:20;;;;;;;11.05;2.10;;;5.70;86.00;;;;;;6094412;23;92384;-72
2022/01/05 07:29:47;;;;;;;9.60;2.42;;;5.80;86.30;;;;;;6093518;23;100893;-73
2022/01/05 07:32:14;;;;;;;11.77;2.60;;;5.80;85.90;;;;;;6094879;23;92872;-72
2022/01/05 07:34:41;;;;;;;5.45;1.58;;;5.90;86.80;;;;;;6093357;23;93945;-72
2022/01/05 07:37:09;;;;;;;8.43;1.95;;;5.90;85.60;;;;;;6095083;23;92280;-73
2022/01/05 07:39:39;;;;;;;10.13;1.95;;;6.00;85.80;;;;;;6069869;23;92458;-72
2022/01/05 07:42:06;;;;;;;12.35;2.00;;;6.00;85.70;;;;;;6094716;23;93105;-72
2022/01/05 07:44:34;;;;;;;5.32;1.67;;;6.00;86.10;;;;;;6094822;23;92818;-72
2022/01/05 07:47:01;;;;;;;4.38;1.05;;;6.00;85.80;;;;;;6095753;23;91704;-72
2022/01/05 07:49:28;;;;;;;9.07;2.75;;;6.10;85.50;;;;;;6094586;23;92453;-74
2022/01/05 07:51:55;;;;;;;7.57;1.52;;;6.10;85.70;;;;;;6092844;23;95812;-74
2022/01/05 07:54:22;;;;;;;4.53;1.20;;;6.10;85.50;;;;;;6092648;23;95448;-73
2022/01/05 07:56:49;;;;;;;8.13;1.20;;;6.10;85.40;;;;;;6092879;23;92399;-74
2022/01/05 07:59:16;;;;;;;4.25;0.93;;;6.10;85.60;;;;;;6092916;23;92467;-73
2022/01/05 08:01:43;;;;;;;3.35;0.93;;;6.10;85.30;;;;;;6092788;23;94060;-73
2022/01/05 08:04:10;;;;;;;4.90;1.23;;;6.10;85.40;;;;;;6092950;23;92972;-73
2022/01/05 08:06:37;;;;;;;3.90;1.77;;;6.10;85.20;;;;;;6094454;23;92415;-73
2022/01/05 08:09:04;;;;;;;4.13;0.90;;;6.10;85.00;;;;;;6095497;23;92519;-74
2022/01/05 08:11:34;;;;;;;4.93;1.30;;;6.10;85.30;;;;;;6095942;23;92213;-74
2022/01/05 08:14:01;;;;;;;2.17;0.90;;;6.10;85.30;;;;;;6094165;23;92427;-74
2022/01/05 08:16:28;;;;;;;3.20;0.90;;;6.20;85.30;;;;;;6095099;23;99059;-73
2022/01/05 08:18:55;;;;;;;7.53;1.17;;;6.10;85.10;;;;;;6092810;23;94913;-73
2022/01/05 08:21:22;;;;;;;4.68;1.00;;;6.20;84.70;;;;;;6095500;23;93155;-74
2022/01/05 08:23:50;;;;;;;4.63;1.70;;;6.30;84.50;;;;;;6069168;23;93002;-73
2022/01/05 08:26:17;;;;;;;5.10;1.23;;;6.30;84.00;;;;;;6095946;23;92357;-74
2022/01/05 08:28:44;;;;;;;4.00;1.15;;;6.40;84.00;;;;;;6095794;23;92891;-74
2022/01/05 08:31:12;;;;;;;7.68;1.38;;;6.50;84.60;;;;;;6094155;23;93084;-73
2022/01/05 08:33:39;;;;;;;4.63;1.40;;;6.60;85.50;;;;;;6093575;23;94062;-73
2022/01/05 08:36:06;;;;;;;8.75;1.50;;;6.60;84.60;;;;;;6096324;23;91603;-74
2022/01/05 08:38:35;;;;;;;6.40;1.60;;;6.60;84.50;;;;;;6095654;23;92486;-73
2022/01/05 08:41:02;;;;;;;10.40;1.95;;;6.60;84.30;;;;;;6095523;23;93043;-74
2022/01/05 08:43:29;;;;;;;8.80;1.48;;;6.60;84.90;;;;;;6093994;23;94826;-74
2022/01/05 08:45:56;;;;;;;5.70;1.20;;;6.50;85.10;;;;;;6096005;23;92381;-74
2022/01/05 08:48:23;;;;;;;4.15;0.90;;;6.60;85.30;;;;;;6095683;23;92421;-73
2022/01/05 08:50:51;;;;;;;4.35;1.20;;;6.50;85.00;;;;;;6093920;23;94469;-73
2022/01/05 08:53:19;;;;;;;7.22;0.98;;;6.50;85.00;;;;;;6095482;23;92638;-73
2022/01/05 08:55:48;;;;;;;4.65;1.10;;;6.50;84.90;;;;;;6094995;23;92463;-73
2022/01/05 08:58:17;;;;;;;5.85;1.90;;;6.60;84.70;;;;;;6095449;23;92391;-72
2022/01/05 09:00:44;;;;;;;7.18;1.23;;;6.60;85.00;;;;;;6095636;23;92844;-73
2022/01/05 09:03:14;;;;;;;8.60;1.88;;;6.60;84.80;;;;;;6095464;23;92342;-73
2022/01/05 09:05:42;;;;;;;5.95;1.40;;;6.70;84.40;;;;;;6095612;23;92450;-73
2022/01/05 09:08:10;;;;;;;5.40;1.20;;;6.70;84.50;;;;;;6094433;23;94800;-73
2022/01/05 09:10:37;;;;;;;8.55;1.40;;;6.70;84.80;;;;;;6095093;23;93000;-72
2022/01/05 09:13:05;;;;;;;7.82;1.88;;;6.70;84.80;;;;;;6095341;23;92780;-72
2022/01/05 09:15:34;;;;;;;8.38;1.60;;;6.80;85.60;;;;;;6095009;23;92369;-73
2022/01/05 09:18:01;;;;;;;9.93;1.40;;;6.80;85.20;;;;;;6068889;23;92543;-73
2022/01/05 09:20:29;;;;;;;8.32;1.40;;;6.90;85.50;;;;;;6094504;23;93292;-72
2022/01/05 09:22:56;;;;;;;11.45;1.98;;;7.00;85.00;;;;;;6093743;23;93932;-72
2022/01/05 09:25:23;;;;;;;6.13;1.45;;;7.10;85.50;;;;;;6095645;23;91681;-73
2022/01/05 09:27:51;;;;;;;10.65;2.10;;;7.20;84.70;;;;;;6094914;23;92403;-73
2022/01/05 09:30:19;;;;;;;7.57;1.40;;;7.30;84.60;;;;;;6094854;23;94105;-73
2022/01/05 09:32:47;;;;;;;7.30;1.25;;;7.30;84.50;;;;;;6093528;23;94910;-73
2022/01/05 09:35:17;;;;;;;8.57;1.60;;;7.30;84.20;;;;;;6095612;23;92491;-73
2022/01/05 09:38:32;;;;;;;12.77;1.83;;;7.30;84.10;;;;;;6068902;23;92551;-73
2022/01/05 09:43:23;;;;;;;10.27;1.30;;;7.20;83.30;;;;;;6095229;23;92732;-73
2022/01/05 09:46:19;;;;;;;10.50;1.52;;;7.10;83.80;;;;;;6094991;23;92399;-73
2022/01/05 09:48:59;;;;;;;13.75;1.60;;;7.10;83.70;;;;;;6094980;23;92471;-73
2022/01/05 09:51:30;;;;;;;6.75;1.13;;;7.10;83.70;;;;;;6094460;23;93356;-73
2022/01/05 09:54:00;;;;;;;10.20;1.98;;;7.10;83.40;;;;;;6068975;23;93183;-74
2022/01/05 09:56:46;;;;;;;4.25;1.50;;;7.10;82.70;;;;;;6094898;23;92804;-74
2022/01/05 09:59:15;;;;;;;6.10;1.10;;;7.20;83.00;;;;;;6092226;23;95190;-72
2022/01/05 10:01:42;;;;;;;8.60;1.73;;;7.40;82.40;;;;;;6094845;23;93072;-72
2022/01/05 10:04:11;;;;;;;9.88;1.38;;;7.40;81.90;;;;;;6095210;23;92836;-73
2022/01/05 10:06:38;;;;;;;6.10;1.30;;;7.50;81.20;;;;;;6095333;23;92377;-73
2022/01/05 10:09:06;;;;;;;15.82;1.88;;;7.50;81.10;;;;;;6095240;23;92754;-74
2022/01/05 10:11:34;;;;;;;8.30;1.52;;;7.50;81.70;;;;;;6093469;23;93082;-73
2022/01/05 10:14:01;;;;;;;11.40;1.58;;;7.50;81.20;;;;;;6095413;23;92749;-73
2022/01/05 10:16:28;;;;;;;6.63;1.92;;;7.50;81.20;;;;;;6096314;23;91939;-74
2022/01/05 10:18:55;;;;;;;13.40;2.67;;;7.50;81.10;;;;;;6095652;23;92440;-73
2022/01/05 10:21:22;;;;;;;8.00;1.90;;;7.60;81.40;;;;;;6069824;23;93390;-72
2022/01/05 10:23:51;;;;;;;9.30;1.88;;;7.50;80.80;;;;;;6093996;23;94848;-73
2022/01/05 10:26:34;;;;;;;9.65;2.17;;;7.50;80.60;;;;;;6095923;23;92309;-73
2022/01/05 10:29:04;;;;;;;12.93;4.82;;;7.60;80.60;;;;;;6095854;23;92408;-73
2022/01/05 10:31:39;;;;;;;11.43;2.30;;;7.70;80.30;;;;;;6093523;23;93207;-73
2022/01/05 10:34:28;;;;;;;8.85;2.08;;;7.80;80.10;;;;;;6094295;23;92931;-73
2022/01/05 10:36:57;;;;;;;9.43;1.83;;;7.80;80.10;;;;;;6095793;23;92424;-73
2022/01/05 10:39:30;;;;;;;8.48;1.73;;;7.90;79.40;;;;;;6095848;23;92283;-72
2022/01/05 10:42:06;;;;;;;9.27;1.67;;;7.90;79.40;;;;;;6069204;23;95029;-72
2022/01/05 10:44:34;;;;;;;13.00;1.50;;;7.90;79.00;;;;;;6095747;23;92338;-73
2022/01/05 10:47:01;;;;;;;12.73;1.95;;;8.00;79.20;;;;;;6095496;23;92434;-72
2022/01/05 10:49:32;;;;;;;13.30;2.10;;;8.00;78.90;;;;;;6094281;23;94872;-72
2022/01/05 10:52:18;;;;;;;10.50;2.13;;;8.00;78.90;;;;;;6095134;23;96022;-73
2022/01/05 10:54:46;;;;;;;10.88;1.90;;;8.10;78.80;;;;;;6069095;23;95360;-73
2022/01/05 10:57:13;;;;;;;13.00;2.42;;;8.10;78.50;;;;;;6069752;23;92499;-73
2022/01/05 10:59:45;;;;;;;14.23;2.25;;;8.20;77.80;;;;;;6095664;23;92382;-73
2022/01/05 11:02:31;;;;;;;14.65;2.03;;;8.20;77.10;;;;;;6094098;23;95104;-73
2022/01/05 11:05:08;;;;;;;12.02;2.13;;;8.30;77.40;;;;;;6095596;23;92862;-73
2022/01/05 11:07:37;;;;;;;13.20;2.28;;;8.30;77.10;;;;;;6069852;23;91685;-73
2022/01/05 11:10:08;;;;;;;12.23;2.25;;;8.30;76.60;;;;;;6094737;23;92393;-74
2022/01/05 11:12:41;;;;;;;9.88;1.58;;;8.30;76.90;;;;;;6095392;23;93117;-73
2022/01/05 11:15:34;;;;;;;13.18;2.38;;;8.40;76.20;;;;;;6094142;23;94785;-73
2022/01/05 11:18:13;;;;;;;9.77;1.83;;;8.50;75.70;;;;;;6095480;23;92404;-74
2022/01/05 11:20:55;;;;;;;17.65;2.60;;;8.50;76.80;;;;;;6070151;23;92397;-73
2022/01/05 11:23:23;;;;;;;10.63;2.00;;;8.50;75.60;;;;;;6095032;23;93086;-74
2022/01/05 11:25:53;;;;;;;14.95;2.17;;;8.60;75.70;;;;;;6094495;23;95828;-74
2022/01/05 11:28:22;;;;;;;12.65;2.40;;;8.60;76.00;;;;;;6095032;23;92437;-74
2022/01/05 11:30:51;;;;;;;12.93;2.10;;;8.70;76.00;;;;;;6093071;23;92484;-74
2022/01/05 11:33:19;;;;;;;17.60;2.65;;;8.80;76.20;;;;;;6095194;23;92236;-74
2022/01/05 11:35:47;;;;;;;10.88;2.55;;;8.90;75.90;;;;;;6092623;23;93314;-73
2022/01/05 11:38:15;;;;;;;12.35;2.30;;;8.90;75.70;;;;;;6093444;23;92487;-73
2022/01/05 11:40:57;;;;;;;20.30;2.40;;;9.00;75.10;;;;;;6091674;23;94836;-72
2022/01/05 11:43:28;;;;;;;15.40;2.83;;;9.10;75.30;;;;;;6094404;23;93007;-73
2022/01/05 11:45:56;;;;;;;15.93;2.40;;;9.10;75.20;;;;;;6094564;23;92847;-74
2022/01/05 11:48:31;;;;;;;15.82;2.25;;;9.10;75.40;;;;;;6094973;23;92483;-74
2022/01/05 11:51:01;;;;;;;9.80;2.30;;;9.20;75.20;;;;;;6094513;23;92379;-74
2022/01/05 11:53:38;;;;;;;13.02;1.88;;;9.20;74.80;;;;;;6094134;23;101699;-74
2022/01/05 11:56:15;;;;;;;13.90;2.80;;;9.20;75.20;;;;;;6093720;23;92690;-73
2022/01/05 11:59:03;;;;;;;13.35;3.20;;;9.30;75.00;;;;;;6093824;23;91842;-73
2022/01/05 12:01:35;;;;;;;13.63;3.15;;;9.40;74.30;;;;;;6093159;23;92564;-73
2022/01/05 12:04:06;;;;;;;18.60;3.72;;;9.50;75.30;;;;;;6068092;23;94392;-74
2022/01/05 12:06:35;;;;;;;14.10;2.55;;;9.60;73.80;;;;;;6093178;23;94761;-73
2022/01/05 12:09:20;;;;;;;13.38;3.75;;;9.80;73.50;;;;;;6092782;23;92474;-73
2022/01/05 12:11:47;;;;;;;17.73;3.28;;;10.00;73.20;;;;;;6069212;23;92369;-73
2022/01/05 12:14:20;;;;;;;15.60;3.05;;;10.10;72.50;;;;;;6094167;23;93084;-73
2022/01/05 12:16:59;;;;;;;19.47;2.77;;;10.20;71.70;;;;;;6093014;23;94018;-73
2022/01/05 12:19:45;;;;;;;18.40;2.95;;;10.20;70.50;;;;;;6094916;23;92476;-74
2022/01/05 12:22:20;;;;;;;10.50;2.25;;;10.20;71.20;;;;;;6094478;23;92377;-73
2022/01/05 12:24:53;;;;;;;16.73;3.38;;;10.10;69.40;;;;;;6094903;23;92259;-74
2022/01/05 12:27:25;;;;;;;14.37;3.10;;;10.10;71.00;;;;;;6092972;23;93179;-74
2022/01/05 12:29:54;;;;;;;14.80;2.95;;;10.00;71.00;;;;;;6094426;23;92449;-74
2022/01/05 12:32:40;;;;;;;14.20;2.55;;;10.00;70.80;;;;;;6093120;23;94845;-73
2022/01/05 12:35:21;;;;;;;15.65;2.92;;;9.90;71.00;;;;;;6067647;23;94102;-73
2022/01/05 12:38:04;;;;;;;16.10;3.33;;;9.90;71.00;;;;;;6094267;23;92684;-73
2022/01/05 12:40:43;;;;;;;14.20;2.53;;;9.90;71.40;;;;;;6069259;23;92442;-74
2022/01/05 12:43:10;;;;;;;13.68;3.20;;;9.90;70.50;;;;;;6094332;23;92538;-73
2022/01/05 12:45:57;;;;;;;12.25;3.13;;;9.80;70.00;;;;;;6092557;23;94241;-73
2022/01/05 12:48:33;;;;;;;19.13;3.00;;;9.90;70.60;;;;;;6094529;23;92958;-74
2022/01/05 12:51:38;;;;;;;13.52;2.75;;;9.80;70.50;;;;;;6094383;23;91639;-74
2022/01/05 12:54:12;;;;;;;10.50;2.53;;;9.80;71.90;;;;;;6094109;23;92379;-73
2022/01/05 12:57:00;;;;;;;11.55;2.20;;;9.80;71.20;;;;;;6094634;23;93025;-73
2022/01/05 12:59:30;;;;;;;14.02;2.30;;;9.70;70.40;;;;;;6067737;23;94909;-73
2022/01/05 13:02:03;;;;;;;19.13;3.88;;;9.70;71.10;;;;;;6095846;23;92525;-73
2022/01/05 13:04:32;;;;;;;15.00;2.78;;;9.60;71.50;;;;;;6095985;23;92436;-73
2022/01/05 13:07:00;;;;;;;12.80;3.00;;;9.50;70.50;;;;;;6095388;23;92922;-73